createdAt,value
2019-03-28T00:05:07.890Z,101630.94
2019-03-28T00:07:38.994Z,101629.64
2019-03-28T00:10:20.471Z,101628.67
2019-03-28T00:13:01.641Z,101629.42
2019-03-28T00:15:31.841Z,101629.42
2019-03-28T00:18:02.326Z,101632.66
2019-03-28T00:23:47.500Z,101625.11
2019-03-28T00:26:42.580Z,101625.11
2019-03-28T00:29:12.613Z,101624.85
2019-03-28T00:31:42.556Z,101629.67
2019-03-28T00:34:12.596Z,101628.80
2019-03-28T00:42:59.849Z,101634.83
2019-03-28T00:45:17.233Z,101629.40
2019-03-28T00:47:47.365Z,101633.63
2019-03-28T00:53:28.856Z,101639.00
2019-03-28T00:55:58.878Z,101636.20
2019-03-28T00:58:47.558Z,101631.52
2019-03-28T01:01:17.761Z,101632.14
2019-03-28T01:03:47.876Z,101626.61
2019-03-28T01:06:18.011Z,101624.08
2019-03-28T01:08:47.954Z,101624.08
2019-03-28T01:11:18.069Z,101622.28
2019-03-28T01:14:06.968Z,101636.80
2019-03-28T01:16:36.982Z,101636.80
2019-03-28T01:19:26.047Z,101634.02
2019-03-28T01:21:56.161Z,101637.36
2019-03-28T01:24:26.164Z,101636.30
2019-03-28T01:26:57.398Z,101634.25
2019-03-28T01:29:27.918Z,101631.70
2019-03-28T01:32:16.792Z,101637.08
2019-03-28T01:34:47.443Z,101644.41
2019-03-28T01:37:17.397Z,101644.41
2019-03-28T01:39:51.039Z,101633.34
2019-03-28T01:42:21.100Z,101643.42
2019-03-28T01:44:51.259Z,101648.92
2019-03-28T01:47:40.274Z,101654.30
2019-03-28T01:50:10.556Z,101654.30
2019-03-28T01:52:40.694Z,101636.86
2019-03-28T01:55:10.937Z,101636.86
2019-03-28T01:57:41.572Z,101639.28
2019-03-28T02:00:31.982Z,101639.28
2019-03-28T02:03:13.540Z,101641.80
2019-03-28T02:05:43.701Z,101635.21
2019-03-28T02:08:13.670Z,101639.87
2019-03-28T02:10:46.556Z,101629.47
2019-03-28T02:15:52.474Z,101627.56
2019-03-28T02:18:41.472Z,101634.23
2019-03-28T02:21:22.176Z,101634.23
2019-03-28T02:23:52.223Z,101639.86
2019-03-28T02:26:22.221Z,101639.86
2019-03-28T02:28:52.396Z,101634.92
2019-03-28T02:31:22.553Z,101633.02
2019-03-28T02:33:52.623Z,101615.39
2019-03-28T02:36:22.938Z,101625.72
2019-03-28T02:38:53.056Z,101629.09
2019-03-28T02:41:23.073Z,101622.25
2019-03-28T02:43:53.098Z,101619.72
2019-03-28T02:46:23.100Z,101610.97
2019-03-28T02:48:53.897Z,101621.19
2019-03-28T02:54:17.419Z,101624.08
2019-03-28T02:56:47.653Z,101623.75
2019-03-28T02:59:17.662Z,101620.86
2019-03-28T03:01:48.183Z,101619.80
2019-03-28T03:04:19.766Z,101628.69
2019-03-28T03:09:40.412Z,101616.97
2019-03-28T03:12:29.500Z,101622.60
2019-03-28T03:15:10.384Z,101622.60
2019-03-28T03:17:43.750Z,101611.91
2019-03-28T03:20:32.821Z,101629.23
2019-03-28T03:23:02.827Z,101627.77
2019-03-28T03:25:51.617Z,101627.77
2019-03-28T03:28:43.569Z,101634.25
2019-03-28T03:31:25.480Z,101650.08
2019-03-28T03:34:06.578Z,101660.64
2019-03-28T03:36:38.075Z,101660.64
2019-03-28T03:39:09.494Z,101665.55
2019-03-28T03:41:39.608Z,101664.97
2019-03-28T03:44:09.834Z,101664.97
2019-03-28T03:47:09.443Z,101657.02
2019-03-28T03:49:39.568Z,101666.95
2019-03-28T03:52:28.365Z,101675.77
2019-03-28T03:55:17.082Z,101675.25
2019-03-28T03:58:15.268Z,101673.31
2019-03-28T04:00:39.481Z,101673.31
2019-03-28T04:03:09.654Z,101681.11
2019-03-28T04:05:58.270Z,101688.28
2019-03-28T04:08:28.373Z,101692.34
2019-03-28T04:10:58.409Z,101702.48
2019-03-28T04:13:28.469Z,101704.16
2019-03-28T04:18:51.435Z,101700.63
2019-03-28T04:21:21.506Z,101696.30
2019-03-28T04:23:51.574Z,101687.18
2019-03-28T04:28:58.962Z,101680.58
2019-03-28T04:31:28.990Z,101684.74
2019-03-28T04:37:00.312Z,101670.56
2019-03-28T04:39:49.025Z,101673.94
2019-03-28T04:42:19.138Z,101673.94
2019-03-28T04:44:49.152Z,101675.15
2019-03-28T04:47:19.567Z,101676.98
2019-03-28T04:50:11.019Z,101677.16
2019-03-28T04:52:41.050Z,101677.16
2019-03-28T04:55:29.968Z,101674.09
2019-03-28T04:58:05.423Z,101679.80
2019-03-28T05:00:54.218Z,101679.80
2019-03-28T05:03:24.344Z,101678.30
2019-03-28T05:06:05.137Z,101680.61
2019-03-28T05:08:35.258Z,101676.33
2019-03-28T05:14:29.066Z,101693.55
2019-03-28T05:16:59.291Z,101696.95
2019-03-28T05:19:48.424Z,101688.55
2019-03-28T05:22:37.638Z,101687.14
2019-03-28T05:25:19.050Z,101688.34
2019-03-28T05:27:49.091Z,101688.34
2019-03-28T05:30:19.044Z,101684.28
2019-03-28T05:32:49.106Z,101679.61
2019-03-28T05:35:19.040Z,101679.61
2019-03-28T05:37:48.959Z,101687.06
2019-03-28T05:40:19.006Z,101687.06
2019-03-28T05:42:48.997Z,101678.27
2019-03-28T05:45:19.036Z,101678.27
2019-03-28T05:47:49.096Z,101670.95
2019-03-28T05:50:19.031Z,101685.72
2019-03-28T05:52:48.986Z,101683.64
2019-03-28T05:55:19.075Z,101684.33
2019-03-28T05:57:49.017Z,101686.94
2019-03-28T06:00:19.047Z,101688.81
2019-03-28T06:02:49.124Z,101684.30
2019-03-28T06:05:19.398Z,101677.86
2019-03-28T06:07:49.383Z,101692.95
2019-03-28T06:10:19.361Z,101710.81
2019-03-28T06:12:49.286Z,101711.46
2019-03-28T06:18:19.150Z,101706.88
2019-03-28T06:23:43.858Z,101699.66
2019-03-28T06:26:13.815Z,101712.31
2019-03-28T06:28:43.883Z,101707.11
2019-03-28T06:31:13.928Z,101705.61
2019-03-28T06:34:03.894Z,101705.34
2019-03-28T06:36:33.848Z,101702.80
2019-03-28T06:39:06.803Z,101704.74
2019-03-28T06:41:36.968Z,101698.13
2019-03-28T06:44:07.124Z,101697.89
2019-03-28T06:46:37.055Z,101700.84
2019-03-28T06:49:11.183Z,101692.06
2019-03-28T06:54:17.728Z,101674.84
2019-03-28T06:56:58.165Z,101676.03
2019-03-28T07:02:09.937Z,101692.36
2019-03-28T07:04:39.868Z,101701.22
2019-03-28T07:07:10.094Z,101692.32
2019-03-28T07:09:40.173Z,101685.55
2019-03-28T07:12:10.172Z,101689.41
2019-03-28T07:14:40.098Z,101689.19
2019-03-28T07:17:10.094Z,101678.43
2019-03-28T07:19:40.008Z,101681.49
2019-03-28T07:22:11.517Z,101668.85
2019-03-28T07:25:00.466Z,101669.05
2019-03-28T07:30:19.976Z,101664.75
2019-03-28T07:33:09.864Z,101673.28
2019-03-28T07:35:39.892Z,101683.67
2019-03-28T07:38:09.950Z,101680.64
2019-03-28T07:40:40.019Z,101680.72
2019-03-28T07:43:10.056Z,101679.66
2019-03-28T07:45:40.043Z,101676.59
2019-03-28T07:48:10.311Z,101669.48
2019-03-28T07:50:42.555Z,101661.37
2019-03-28T07:53:13.389Z,101669.58
2019-03-28T07:55:43.345Z,101680.31
2019-03-28T07:58:13.363Z,101681.31
2019-03-28T08:00:43.427Z,101688.70
2019-03-28T08:03:13.391Z,101684.35
2019-03-28T08:05:43.412Z,101680.87
2019-03-28T08:08:14.502Z,101678.36
2019-03-28T08:10:44.532Z,101678.50
2019-03-28T08:13:14.535Z,101676.31
2019-03-28T08:18:23.607Z,101672.09
2019-03-28T08:21:03.122Z,101677.20
2019-03-28T08:23:35.360Z,101676.48
2019-03-28T08:26:12.075Z,101690.16
2019-03-28T08:29:02.233Z,101684.40
2019-03-28T08:31:34.447Z,101685.50
2019-03-28T08:37:18.062Z,101689.20
2019-03-28T08:39:48.128Z,101690.32
2019-03-28T08:42:18.302Z,101689.77
2019-03-28T08:45:07.419Z,101690.87
2019-03-28T08:47:48.974Z,101677.52
2019-03-28T08:50:18.955Z,101681.06
2019-03-28T08:53:07.553Z,101687.92
2019-03-28T08:55:37.633Z,101685.11
2019-03-28T08:58:08.865Z,101686.45
2019-03-28T09:00:51.131Z,101684.06
2019-03-28T09:03:10.668Z,101680.19
2019-03-28T09:05:40.808Z,101670.93
2019-03-28T09:08:10.854Z,101668.10
2019-03-28T09:10:40.996Z,101663.31
2019-03-28T09:13:11.274Z,101668.46
2019-03-28T09:15:43.923Z,101674.13
2019-03-28T09:18:13.133Z,101672.73
2019-03-28T09:23:26.809Z,101674.21
2019-03-28T09:28:51.381Z,101666.92
2019-03-28T09:31:21.527Z,101671.88
2019-03-28T09:33:51.486Z,101655.00
2019-03-28T09:36:21.459Z,101661.16
2019-03-28T09:39:10.279Z,101656.70
2019-03-28T09:44:16.182Z,101669.61
2019-03-28T09:49:27.995Z,101660.52
2019-03-28T09:54:41.725Z,101652.97
2019-03-28T10:00:17.800Z,101643.91
2019-03-28T10:02:48.070Z,101652.30
2019-03-28T10:05:18.130Z,101644.58
2019-03-28T10:07:48.364Z,101647.34
2019-03-28T10:10:18.295Z,101642.05
2019-03-28T10:12:49.972Z,101635.18
2019-03-28T10:15:19.971Z,101632.75
2019-03-28T10:17:49.943Z,101627.44
2019-03-28T10:26:03.142Z,101600.75
2019-03-28T10:28:33.260Z,101599.12
2019-03-28T10:31:15.768Z,101597.31
2019-03-28T10:33:38.079Z,101590.76
2019-03-28T10:36:08.090Z,101589.84
2019-03-28T10:38:38.100Z,101582.69
2019-03-28T10:41:08.157Z,101592.13
2019-03-28T10:43:38.224Z,101574.47
2019-03-28T10:46:08.199Z,101569.50
2019-03-28T10:48:38.193Z,101576.98
2019-03-28T10:54:19.408Z,101577.30
2019-03-28T10:56:51.050Z,101576.55
2019-03-28T10:59:22.652Z,101586.31
2019-03-28T11:01:50.063Z,101584.86
2019-03-28T11:04:15.254Z,101582.45
2019-03-28T11:06:45.252Z,101578.81
2019-03-28T11:12:06.077Z,101571.88
2019-03-28T11:14:36.138Z,101568.23
2019-03-28T11:17:06.166Z,101571.56
2019-03-28T11:19:36.466Z,101562.09
2019-03-28T11:22:25.146Z,101571.23
2019-03-28T11:24:55.139Z,101566.63
2019-03-28T11:27:25.164Z,101578.75
2019-03-28T11:29:55.096Z,101580.55
2019-03-28T11:32:25.099Z,101582.39
2019-03-28T11:34:55.057Z,101584.21
2019-03-28T11:37:26.602Z,101585.77
2019-03-28T11:39:56.804Z,101592.63
2019-03-28T11:42:27.763Z,101590.91
2019-03-28T11:47:41.700Z,101588.45
2019-03-28T11:50:50.659Z,101581.14
2019-03-28T11:53:20.752Z,101580.34
2019-03-28T11:55:51.437Z,101580.47
2019-03-28T11:58:21.452Z,101585.38
2019-03-28T12:01:11.822Z,101584.23
2019-03-28T12:03:41.805Z,101585.98
2019-03-28T12:06:11.863Z,101579.30
2019-03-28T12:08:41.787Z,101571.44
2019-03-28T12:11:12.511Z,101573.94
2019-03-28T12:13:44.945Z,101567.48
2019-03-28T12:16:28.952Z,101573.31
2019-03-28T12:18:58.908Z,101580.16
2019-03-28T12:21:28.889Z,101569.48
2019-03-28T12:23:58.950Z,101574.16
2019-03-28T12:29:22.256Z,101578.41
2019-03-28T12:31:52.240Z,101576.33
2019-03-28T12:34:22.208Z,101579.15
2019-03-28T12:36:52.245Z,101584.84
2019-03-28T12:39:22.248Z,101584.84
2019-03-28T12:41:52.197Z,101579.72
2019-03-28T12:44:22.181Z,101579.06
2019-03-28T12:46:52.202Z,101573.66
2019-03-28T12:49:23.540Z,101566.94
2019-03-28T12:51:53.699Z,101573.66
2019-03-28T12:54:23.681Z,101567.88
2019-03-28T12:56:53.799Z,101564.66
2019-03-28T12:59:23.854Z,101561.54
2019-03-28T13:01:55.188Z,101565.70
2019-03-28T13:07:11.996Z,101566.34
2019-03-28T13:09:41.960Z,101569.80
2019-03-28T13:12:11.925Z,101561.20
2019-03-28T13:14:42.002Z,101568.98
2019-03-28T13:17:12.631Z,101566.59
2019-03-28T13:22:38.603Z,101558.77
2019-03-28T13:25:09.527Z,101551.66
2019-03-28T13:27:39.657Z,101542.73
2019-03-28T13:30:13.815Z,101536.50
2019-03-28T13:32:43.793Z,101532.13
2019-03-28T13:35:19.600Z,101539.41
2019-03-28T13:37:49.530Z,101546.30
2019-03-28T13:40:19.479Z,101545.98
2019-03-28T13:42:52.773Z,101537.67
2019-03-28T13:48:15.006Z,101536.63
2019-03-28T13:50:45.108Z,101521.60
2019-03-28T13:53:39.284Z,101515.06
2019-03-28T13:59:08.152Z,101525.03
2019-03-28T14:01:40.413Z,101522.13
2019-03-28T14:04:28.872Z,101515.58
2019-03-28T14:07:13.456Z,101506.92
2019-03-28T14:09:31.459Z,101505.26
2019-03-28T14:21:04.132Z,101465.23
2019-03-28T14:23:36.388Z,101461.30
2019-03-28T14:26:06.389Z,101467.84
2019-03-28T14:29:20.848Z,101459.34
2019-03-28T14:31:53.453Z,101459.38
2019-03-28T14:34:30.933Z,101457.20
2019-03-28T14:37:01.196Z,101450.55
2019-03-28T14:42:07.126Z,101440.80
2019-03-28T14:47:19.000Z,101450.31
2019-03-28T14:49:53.108Z,101451.15
2019-03-28T14:52:23.091Z,101441.39
2019-03-28T14:54:53.101Z,101439.20
2019-03-28T14:57:23.366Z,101437.37
2019-03-28T14:59:54.862Z,101439.45
2019-03-28T15:02:24.780Z,101433.63
2019-03-28T15:05:00.731Z,101430.10
2019-03-28T15:07:30.736Z,101426.50
2019-03-28T15:10:01.924Z,101437.19
2019-03-28T15:12:32.690Z,101436.84
2019-03-28T15:15:03.012Z,101440.80
2019-03-28T15:17:33.092Z,101441.31
2019-03-28T15:20:03.192Z,101443.49
2019-03-28T15:22:33.232Z,101438.41
2019-03-28T15:25:03.302Z,101448.16
2019-03-28T15:27:33.357Z,101451.17
2019-03-28T15:30:04.256Z,101463.95
2019-03-28T15:32:46.767Z,101464.26
2019-03-28T15:35:16.935Z,101468.69
2019-03-28T15:37:47.450Z,101469.21
2019-03-28T15:40:56.685Z,101466.85
2019-03-28T15:43:26.946Z,101453.45
2019-03-28T15:45:57.049Z,101463.11
2019-03-28T15:48:27.089Z,101459.58
2019-03-28T15:50:57.023Z,101464.07
2019-03-28T15:53:27.005Z,101469.36
2019-03-28T15:55:57.011Z,101483.88
2019-03-28T15:58:27.032Z,101482.54
2019-03-28T16:00:56.974Z,101487.81
2019-03-28T16:03:27.049Z,101501.39
2019-03-28T16:05:58.595Z,101480.02
2019-03-28T16:08:33.025Z,101469.88
2019-03-28T16:11:03.139Z,101466.54
2019-03-28T16:13:33.286Z,101452.33
2019-03-28T16:16:03.452Z,101448.50
2019-03-28T16:18:33.717Z,101440.37
2019-03-28T16:21:03.840Z,101430.48
2019-03-28T16:23:38.468Z,101435.41
2019-03-28T16:26:08.461Z,101441.27
2019-03-28T16:28:39.009Z,101439.92
2019-03-28T16:31:09.184Z,101450.40
2019-03-28T16:33:39.181Z,101448.42
2019-03-28T16:36:09.347Z,101446.57
2019-03-28T16:38:39.420Z,101443.29
2019-03-28T16:41:28.625Z,101444.81
2019-03-28T16:43:59.687Z,101447.44
2019-03-28T16:46:30.744Z,101444.63
2019-03-28T16:49:00.817Z,101447.63
2019-03-28T16:51:31.253Z,101438.41
2019-03-28T16:54:01.782Z,101434.34
2019-03-28T16:56:33.371Z,101443.75
2019-03-28T16:59:03.409Z,101433.46
2019-03-28T17:01:33.811Z,101438.73
2019-03-28T17:04:03.931Z,101440.43
2019-03-28T17:10:00.421Z,101435.73
2019-03-28T17:12:30.542Z,101430.80
2019-03-28T17:15:00.534Z,101443.48
2019-03-28T17:17:30.966Z,101439.26
2019-03-28T17:20:19.902Z,101443.84
2019-03-28T17:22:50.067Z,101446.25
2019-03-28T17:25:20.097Z,101443.98
2019-03-28T17:27:50.025Z,101450.66
2019-03-28T17:30:20.074Z,101451.81
2019-03-28T17:32:50.085Z,101458.67
2019-03-28T17:35:20.102Z,101460.67
2019-03-28T17:37:50.189Z,101460.24
2019-03-28T17:40:20.109Z,101463.39
2019-03-28T17:42:50.243Z,101472.20
2019-03-28T17:45:21.793Z,101469.98
2019-03-28T17:56:30.771Z,101464.50
2019-03-28T17:59:00.748Z,101462.73
2019-03-28T18:01:30.712Z,101466.66
2019-03-28T18:04:01.682Z,101467.20
2019-03-28T18:06:31.873Z,101460.22
2019-03-28T18:09:02.035Z,101455.72
2019-03-28T18:11:43.224Z,101473.24
2019-03-28T18:17:26.236Z,101462.80
2019-03-28T18:19:56.316Z,101456.14
2019-03-28T18:22:26.290Z,101457.70
2019-03-28T18:24:56.278Z,101459.80
2019-03-28T18:27:26.230Z,101464.22
2019-03-28T18:32:45.365Z,101452.80
2019-03-28T18:35:15.316Z,101457.76
2019-03-28T18:37:45.395Z,101452.42
2019-03-28T18:40:15.613Z,101461.81
2019-03-28T18:42:48.578Z,101463.55
2019-03-28T18:45:18.847Z,101457.05
2019-03-28T18:47:49.003Z,101457.91
2019-03-28T18:50:19.087Z,101446.24
2019-03-28T18:52:49.046Z,101438.91
2019-03-28T18:55:20.714Z,101445.62
2019-03-28T19:00:55.542Z,101434.16
2019-03-28T19:03:25.558Z,101424.63
2019-03-28T19:05:55.511Z,101426.83
2019-03-28T19:08:25.583Z,101430.52
2019-03-28T19:10:55.540Z,101424.83
2019-03-28T19:13:25.506Z,101422.83
2019-03-28T19:15:55.512Z,101428.58
2019-03-28T19:18:25.802Z,101426.43
2019-03-28T19:20:55.871Z,101425.95
2019-03-28T19:23:26.093Z,101424.97
2019-03-28T19:25:57.757Z,101419.84
2019-03-28T19:28:29.395Z,101420.37
2019-03-28T19:31:13.729Z,101420.72
2019-03-28T19:33:31.627Z,101425.25
2019-03-28T19:36:21.897Z,101429.47
2019-03-28T19:39:03.317Z,101431.66
2019-03-28T19:42:12.375Z,101430.50
2019-03-28T19:44:43.084Z,101427.01
2019-03-28T19:47:13.044Z,101429.73
2019-03-28T19:49:43.269Z,101431.42
2019-03-28T19:52:13.490Z,101435.97
2019-03-28T19:54:43.492Z,101437.86
2019-03-28T19:57:13.521Z,101441.39
2019-03-28T19:59:43.525Z,101440.90
2019-03-28T20:02:14.368Z,101438.41
2019-03-28T20:04:46.846Z,101427.25
2019-03-28T20:07:28.343Z,101425.42
2019-03-28T20:09:58.394Z,101425.44
2019-03-28T20:12:28.896Z,101420.76
2019-03-28T20:15:00.246Z,101417.95
2019-03-28T20:17:30.645Z,101424.16
2019-03-28T20:20:00.816Z,101422.00
2019-03-28T20:22:32.839Z,101427.19
2019-03-28T20:25:02.989Z,101421.71
2019-03-28T20:27:33.017Z,101424.89
2019-03-28T20:30:03.101Z,101414.03
2019-03-28T20:32:33.284Z,101414.20
2019-03-28T20:35:06.226Z,101403.67
2019-03-28T20:45:34.733Z,101394.53
2019-03-28T20:48:16.956Z,101404.90
2019-03-28T20:50:50.184Z,101415.93
2019-03-28T20:56:14.699Z,101404.20
2019-03-28T20:58:44.648Z,101404.70
2019-03-28T21:04:03.766Z,101417.58
2019-03-28T21:06:54.034Z,101412.73
2019-03-28T21:09:35.400Z,101409.22
2019-03-28T21:14:59.279Z,101409.06
2019-03-28T21:17:31.994Z,101416.25
2019-03-28T21:20:02.810Z,101414.08
2019-03-28T21:22:32.776Z,101402.75
2019-03-28T21:25:02.734Z,101409.77
2019-03-28T21:27:33.086Z,101404.27
2019-03-28T21:32:55.156Z,101404.60
2019-03-28T21:35:18.221Z,101409.95
2019-03-28T21:37:48.272Z,101407.11
2019-03-28T21:40:18.418Z,101400.09
2019-03-28T21:42:49.932Z,101401.63
2019-03-28T21:45:19.882Z,101398.63
2019-03-28T21:47:50.811Z,101396.79
2019-03-28T21:50:39.674Z,101387.94
2019-03-28T21:53:12.581Z,101375.23
2019-03-28T21:55:54.293Z,101375.23
2019-03-28T21:58:14.244Z,101372.56
2019-03-28T22:00:44.202Z,101363.21
2019-03-28T22:03:16.979Z,101368.05
2019-03-28T22:05:48.001Z,101357.20
2019-03-28T22:11:24.281Z,101362.87
2019-03-28T22:13:54.837Z,101360.20
2019-03-28T22:16:24.727Z,101371.06
2019-03-28T22:18:54.775Z,101373.41
2019-03-28T22:21:27.246Z,101363.22
2019-03-28T22:23:56.613Z,101376.08
2019-03-28T22:29:02.604Z,101358.87
2019-03-28T22:31:32.739Z,101358.04
2019-03-28T22:34:02.722Z,101351.03
2019-03-28T22:36:32.680Z,101348.52
2019-03-28T22:39:02.779Z,101346.05
2019-03-28T22:41:32.756Z,101341.38
2019-03-28T22:44:02.798Z,101341.88
2019-03-28T22:49:08.079Z,101329.52
2019-03-28T22:51:38.059Z,101328.19
2019-03-28T22:54:08.011Z,101327.69
2019-03-28T22:56:38.107Z,101322.19
2019-03-28T22:59:08.570Z,101327.70
2019-03-28T23:01:38.721Z,101332.71
2019-03-28T23:04:08.635Z,101319.72
2019-03-28T23:06:38.601Z,101318.05
2019-03-28T23:09:08.881Z,101325.41
2019-03-28T23:11:50.352Z,101333.92
2019-03-28T23:14:20.438Z,101332.25
2019-03-28T23:16:50.677Z,101328.58
2019-03-28T23:19:20.661Z,101324.08
2019-03-28T23:21:50.648Z,101325.41
2019-03-28T23:24:20.656Z,101327.75
2019-03-28T23:26:50.708Z,101322.41
2019-03-28T23:29:21.015Z,101321.23
2019-03-28T23:31:51.063Z,101314.09
2019-03-28T23:34:21.145Z,101314.27
2019-03-28T23:36:51.446Z,101310.76
2019-03-28T23:39:21.431Z,101307.59
2019-03-28T23:41:51.463Z,101301.91
2019-03-28T23:44:40.269Z,101295.91
2019-03-28T23:47:10.204Z,101293.23
2019-03-28T23:49:40.692Z,101291.89
2019-03-28T23:52:11.928Z,101289.22
2019-03-28T23:54:41.894Z,101279.04
2019-03-28T23:57:11.858Z,101280.87
2019-03-28T23:59:41.807Z,101284.89
